Midland, Nebraska
Current Conditions -  °F | °C
As of 1:53 AM on Thursday 27 Nov 2014 (Local Time) from KGRI Reporting Station
Clear Clear  
Wind Chill:   Ceiling: Unl
Heat Index: 16°   Visibility: 10mi
Dew Point: 12°   Wind: 5mph
Humidity: 84%   Direction: 30°NNE
Pressure: 30.44"   Gusts: NA
Location:  41.1769°N, 98.1165°W
Report Text: KGRI 270753Z AUTO 03004KT 10SM CLR M09/M11 A3044 RMK AO2 SLP342 T10891111 TSNO
Loading
Personal Weather Stations






























Interactive Weather Map New forecast layout! Learn more

10-Day Weather Forecast

Advertisements
Track Severe Weather on mobile